Irish Sea — WDB5555 — position and weather

sailwx.info

Track history (hours):
 
Tides and Currents Weather Stations Pressure Air Temp Water Temp Dewpoint Dewpoint Depression Visibility Wind Speed Wind Dir Waves Ship Positions

Irish Sea

Owner: Kirby Offshore Marine, LLC, Staten Island, NY. More information available from US FCC via Universal Licensing System and Coast Guard Vessel Documentation Center.

Last reported at 2016-Apr-29 01:33 UTC. Time now 2016-Apr-29 01:55 UTC.
Position N 39°43' W 075°30'.

Length 152 m; draft 6.9 m.

Type: Ship (hazmat cat B). MMSI: 366910920.

Date/timePositionNaut miles runAvg speedWind from/ knotsBaromVisibWave heightAir tempDewpointWater temp
2016-Apr-29 01:33N 39°43' W 075°30'0 0.0
2016-Apr-29 00:33N 39°43' W 075°30'0 0.0
2016-Apr-28 23:33N 39°43' W 075°30'0 0.1
2016-Apr-28 22:33N 39°43' W 075°30'0 0.1
2016-Apr-28 21:33N 39°43' W 075°30'0 0.0
2016-Apr-28 20:33N 39°43' W 075°30'0 0.0
2016-Apr-28 19:33N 39°43' W 075°30'0 0.0
2016-Apr-28 18:33N 39°43' W 075°30'0 0.1
2016-Apr-28 16:33N 39°43' W 075°30'0 0.1
2016-Apr-28 15:33N 39°43' W 075°30'0 0.0
2016-Apr-28 14:33N 39°43' W 075°30'0 0.0
2016-Apr-28 13:33N 39°43' W 075°30'0 0.0
2016-Apr-28 12:33N 39°43' W 075°30'0 0.0
2016-Apr-28 11:33N 39°43' W 075°30'0 0.1
2016-Apr-28 10:33N 39°43' W 075°30'0 0.2
2016-Apr-28 09:33N 39°43' W 075°30'0 0.0
2016-Apr-28 08:33N 39°43' W 075°30'0 0.0
2016-Apr-28 07:34N 39°43' W 075°30'0 0.0
2016-Apr-28 06:33N 39°43' W 075°30'0 0.0
2016-Apr-28 05:33N 39°43' W 075°30'0 0.0
2016-Apr-28 04:33N 39°43' W 075°30'0 0.2
2016-Apr-28 03:33N 39°43' W 075°30'0 0.0
2016-Apr-28 02:33N 39°43' W 075°30'55 1.9
2016-Apr-26 21:26N 39°04' W 076°21'126 8.5
2016-Apr-26 06:33N 36°58' W 076°02'15 2.2
2016-Apr-25 23:30N 36°52' W 076°19'2 2.4
2016-Apr-25 22:33N 36°50' W 076°16'0 0.0
2016-Apr-25 21:27N 36°50' W 076°16'0 0.3
2016-Apr-25 20:32N 36°50' W 076°17'0 0.0
2016-Apr-25 14:23N 36°50' W 076°17'0 0.0
2016-Apr-25 13:32N 36°50' W 076°17'0 0.0
2016-Apr-25 12:32N 36°50' W 076°17'0 0.0
2016-Apr-25 11:26N 36°50' W 076°17'0 0.0
2016-Apr-25 10:26N 36°50' W 076°17'0 0.0
2016-Apr-25 08:26N 36°50' W 076°17'0 0.0
2016-Apr-23 20:28N 36°50' W 076°17'0 0.0
2016-Apr-23 19:31N 36°50' W 076°17'0 0.0
2016-Apr-23 18:31N 36°50' W 076°17'0 0.0
2016-Apr-23 17:28N 36°50' W 076°17'0 0.0
2016-Apr-23 16:28N 36°50' W 076°17'0 0.0
2016-Apr-23 15:31N 36°50' W 076°17'0 0.0
2016-Apr-23 14:31N 36°50' W 076°17'0 0.0
2016-Apr-23 13:31N 36°50' W 076°17'0 0.0
2016-Apr-23 12:31N 36°50' W 076°17'0 0.0
2016-Apr-23 11:31N 36°50' W 076°17'0 0.0
2016-Apr-23 10:31N 36°50' W 076°17'0 0.0
2016-Apr-23 09:28N 36°50' W 076°17'0 0.0
2016-Apr-23 08:31N 36°50' W 076°17'0 0.0
2016-Apr-23 07:31N 36°50' W 076°17'0 0.0
2016-Apr-23 06:13N 36°50' W 076°17'0 0.0
2016-Apr-23 05:31N 36°50' W 076°17'0 0.0
2016-Apr-23 04:18N 36°50' W 076°17'0 0.0
2016-Apr-23 03:24N 36°50' W 076°17'0 0.0
2016-Apr-23 02:30N 36°50' W 076°17'0 0.0
2016-Apr-23 01:30N 36°50' W 076°17'0 0.0
2016-Apr-23 00:30N 36°50' W 076°17'1 0.8
2016-Apr-22 23:33N 36°50' W 076°18'3 2.7
2016-Apr-22 22:33N 36°48' W 076°18'0 0.0
2016-Apr-22 21:33N 36°48' W 076°18'0 0.0
2016-Apr-22 20:33N 36°48' W 076°18'0 0.0
2016-Apr-22 19:15N 36°48' W 076°18'0 0.0
2016-Apr-22 18:33N 36°48' W 076°18'0 0.0
2016-Apr-22 17:18N 36°48' W 076°18'0 0.0
2016-Apr-22 16:12N 36°48' W 076°18'0 0.0
2016-Apr-22 15:30N 36°48' W 076°18'0 0.0
2016-Apr-22 14:30N 36°48' W 076°18'0 0.1
2016-Apr-22 13:33N 36°48' W 076°18'3 0.2
2016-Apr-22 02:18N 36°50' W 076°17'0 0.0
2016-Apr-22 01:33N 36°50' W 076°17'0 0.0
2016-Apr-22 00:33N 36°50' W 076°17'0 0.0
2016-Apr-21 23:32N 36°50' W 076°17'0 0.0
2016-Apr-21 22:32N 36°50' W 076°17'0 0.0
2016-Apr-21 21:33N 36°50' W 076°17'0 0.0
2016-Apr-21 20:07N 36°50' W 076°17'0 0.1
2016-Apr-21 17:33N 36°50' W 076°16'0 0.0
2016-Apr-21 16:34N 36°50' W 076°16'0 0.0
2016-Apr-21 15:33N 36°50' W 076°16'0 0.0
2016-Apr-21 14:33N 36°50' W 076°16'0 0.0
2016-Apr-21 13:33N 36°50' W 076°16'0 0.0
2016-Apr-21 12:33N 36°50' W 076°16'0 0.0
2016-Apr-21 11:33N 36°50' W 076°16'0 0.0
2016-Apr-21 10:33N 36°50' W 076°16'0 0.0
2016-Apr-21 09:33N 36°50' W 076°16'0 0.0
2016-Apr-21 08:33N 36°50' W 076°16'0 0.0
2016-Apr-21 07:33N 36°50' W 076°16'0 0.0
2016-Apr-21 06:33N 36°50' W 076°16'0 0.0
2016-Apr-21 05:33N 36°50' W 076°16'0 0.0
2016-Apr-21 04:33N 36°50' W 076°16'0 0.0
2016-Apr-21 03:33N 36°50' W 076°16'1 1.1
2016-Apr-21 02:33N 36°51' W 076°18'7 6.4
2016-Apr-21 01:26N 36°57' W 076°21'13 1.3
2016-Apr-20 15:20N 36°58' W 076°05'  
Track history (hours):
 
Tides and Currents Weather Stations Pressure Air Temp Water Temp Dewpoint Dewpoint Depression Visibility Wind Speed Wind Dir Waves Ship Positions

Irish Sea

Owner: Kirby Offshore Marine, LLC, Staten Island, NY. More information available from US FCC via Universal Licensing System and Coast Guard Vessel Documentation Center.

Last reported at 2016-Apr-29 01:33 UTC. Time now 2016-Apr-29 01:55 UTC.
Position N 39°43' W 075°30'.

Length 152 m; draft 6.9 m.

Type: Ship (hazmat cat B). MMSI: 366910920.

Date/timePositionNaut miles runAvg speedWind from/ knotsBaromVisibWave heightAir tempDewpointWater temp
2016-Apr-29 01:33N 39°43' W 075°30'0 0.0
2016-Apr-29 00:33N 39°43' W 075°30'0 0.0
2016-Apr-28 23:33N 39°43' W 075°30'0 0.1
2016-Apr-28 22:33N 39°43' W 075°30'0 0.1
2016-Apr-28 21:33N 39°43' W 075°30'0 0.0
2016-Apr-28 20:33N 39°43' W 075°30'0 0.0
2016-Apr-28 19:33N 39°43' W 075°30'0 0.0
2016-Apr-28 18:33N 39°43' W 075°30'0 0.1
2016-Apr-28 16:33N 39°43' W 075°30'0 0.1
2016-Apr-28 15:33N 39°43' W 075°30'0 0.0
2016-Apr-28 14:33N 39°43' W 075°30'0 0.0
2016-Apr-28 13:33N 39°43' W 075°30'0 0.0
2016-Apr-28 12:33N 39°43' W 075°30'0 0.0
2016-Apr-28 11:33N 39°43' W 075°30'0 0.1
2016-Apr-28 10:33N 39°43' W 075°30'0 0.2
2016-Apr-28 09:33N 39°43' W 075°30'0 0.0
2016-Apr-28 08:33N 39°43' W 075°30'0 0.0
2016-Apr-28 07:34N 39°43' W 075°30'0 0.0
2016-Apr-28 06:33N 39°43' W 075°30'0 0.0
2016-Apr-28 05:33N 39°43' W 075°30'0 0.0
2016-Apr-28 04:33N 39°43' W 075°30'0 0.2
2016-Apr-28 03:33N 39°43' W 075°30'0 0.0
2016-Apr-28 02:33N 39°43' W 075°30'55 1.9
2016-Apr-26 21:26N 39°04' W 076°21'126 8.5
2016-Apr-26 06:33N 36°58' W 076°02'15 2.2
2016-Apr-25 23:30N 36°52' W 076°19'2 2.4
2016-Apr-25 22:33N 36°50' W 076°16'0 0.0
2016-Apr-25 21:27N 36°50' W 076°16'0 0.3
2016-Apr-25 20:32N 36°50' W 076°17'0 0.0
2016-Apr-25 14:23N 36°50' W 076°17'0 0.0
2016-Apr-25 13:32N 36°50' W 076°17'0 0.0
2016-Apr-25 12:32N 36°50' W 076°17'0 0.0
2016-Apr-25 11:26N 36°50' W 076°17'0 0.0
2016-Apr-25 10:26N 36°50' W 076°17'0 0.0
2016-Apr-25 08:26N 36°50' W 076°17'0 0.0
2016-Apr-23 20:28N 36°50' W 076°17'0 0.0
2016-Apr-23 19:31N 36°50' W 076°17'0 0.0
2016-Apr-23 18:31N 36°50' W 076°17'0 0.0
2016-Apr-23 17:28N 36°50' W 076°17'0 0.0
2016-Apr-23 16:28N 36°50' W 076°17'0 0.0
2016-Apr-23 15:31N 36°50' W 076°17'0 0.0
2016-Apr-23 14:31N 36°50' W 076°17'0 0.0
2016-Apr-23 13:31N 36°50' W 076°17'0 0.0
2016-Apr-23 12:31N 36°50' W 076°17'0 0.0
2016-Apr-23 11:31N 36°50' W 076°17'0 0.0
2016-Apr-23 10:31N 36°50' W 076°17'0 0.0
2016-Apr-23 09:28N 36°50' W 076°17'0 0.0
2016-Apr-23 08:31N 36°50' W 076°17'0 0.0
2016-Apr-23 07:31N 36°50' W 076°17'0 0.0
2016-Apr-23 06:13N 36°50' W 076°17'0 0.0
2016-Apr-23 05:31N 36°50' W 076°17'0 0.0
2016-Apr-23 04:18N 36°50' W 076°17'0 0.0
2016-Apr-23 03:24N 36°50' W 076°17'0 0.0
2016-Apr-23 02:30N 36°50' W 076°17'0 0.0
2016-Apr-23 01:30N 36°50' W 076°17'0 0.0
2016-Apr-23 00:30N 36°50' W 076°17'1 0.8
2016-Apr-22 23:33N 36°50' W 076°18'3 2.7
2016-Apr-22 22:33N 36°48' W 076°18'0 0.0
2016-Apr-22 21:33N 36°48' W 076°18'0 0.0
2016-Apr-22 20:33N 36°48' W 076°18'0 0.0
2016-Apr-22 19:15N 36°48' W 076°18'0 0.0
2016-Apr-22 18:33N 36°48' W 076°18'0 0.0
2016-Apr-22 17:18N 36°48' W 076°18'0 0.0
2016-Apr-22 16:12N 36°48' W 076°18'0 0.0
2016-Apr-22 15:30N 36°48' W 076°18'0 0.0
2016-Apr-22 14:30N 36°48' W 076°18'0 0.1
2016-Apr-22 13:33N 36°48' W 076°18'3 0.2
2016-Apr-22 02:18N 36°50' W 076°17'0 0.0
2016-Apr-22 01:33N 36°50' W 076°17'0 0.0
2016-Apr-22 00:33N 36°50' W 076°17'0 0.0
2016-Apr-21 23:32N 36°50' W 076°17'0 0.0
2016-Apr-21 22:32N 36°50' W 076°17'0 0.0
2016-Apr-21 21:33N 36°50' W 076°17'0 0.0
2016-Apr-21 20:07N 36°50' W 076°17'0 0.1
2016-Apr-21 17:33N 36°50' W 076°16'0 0.0
2016-Apr-21 16:34N 36°50' W 076°16'0 0.0
2016-Apr-21 15:33N 36°50' W 076°16'0 0.0
2016-Apr-21 14:33N 36°50' W 076°16'0 0.0
2016-Apr-21 13:33N 36°50' W 076°16'0 0.0
2016-Apr-21 12:33N 36°50' W 076°16'0 0.0
2016-Apr-21 11:33N 36°50' W 076°16'0 0.0
2016-Apr-21 10:33N 36°50' W 076°16'0 0.0
2016-Apr-21 09:33N 36°50' W 076°16'0 0.0
2016-Apr-21 08:33N 36°50' W 076°16'0 0.0
2016-Apr-21 07:33N 36°50' W 076°16'0 0.0
2016-Apr-21 06:33N 36°50' W 076°16'0 0.0
2016-Apr-21 05:33N 36°50' W 076°16'0 0.0
2016-Apr-21 04:33N 36°50' W 076°16'0 0.0
2016-Apr-21 03:33N 36°50' W 076°16'1 1.1
2016-Apr-21 02:33N 36°51' W 076°18'7 6.4
2016-Apr-21 01:26N 36°57' W 076°21'13 1.3
2016-Apr-20 15:20N 36°58' W 076°05'  

Dump ship's entire track history